sensor_id;sensor_type;location;lat;lon;timestamp;P1;durP1;ratioP1;P2;durP2;ratioP2
72575;SDS011;60613;48.658;2.328;2023-10-31T10:10:55;6.65;;;1.00;;
72575;SDS011;60613;48.658;2.328;2023-10-31T10:13:21;6.00;;;1.27;;
72575;SDS011;60613;48.658;2.328;2023-10-31T10:15:48;5.32;;;1.08;;
72575;SDS011;60613;48.658;2.328;2023-10-31T10:18:29;5.82;;;1.25;;
72575;SDS011;60613;48.658;2.328;2023-10-31T10:23:23;6.60;;;1.20;;
72575;SDS011;60613;48.658;2.328;2023-10-31T10:25:50;5.18;;;0.98;;
72575;SDS011;60613;48.658;2.328;2023-10-31T10:28:16;6.75;;;1.08;;
72575;SDS011;60613;48.658;2.328;2023-10-31T10:30:45;5.20;;;1.00;;
72575;SDS011;60613;48.658;2.328;2023-10-31T10:33:11;5.50;;;1.00;;
72575;SDS011;60613;48.658;2.328;2023-10-31T10:35:37;4.32;;;1.00;;
72575;SDS011;60613;48.658;2.328;2023-10-31T10:38:02;5.23;;;0.97;;
72575;SDS011;60613;48.658;2.328;2023-10-31T10:40:36;6.72;;;1.25;;
72575;SDS011;60613;48.658;2.328;2023-10-31T10:43:03;5.75;;;0.98;;
72575;SDS011;60613;48.658;2.328;2023-10-31T10:45:34;5.57;;;0.90;;
72575;SDS011;60613;48.658;2.328;2023-10-31T10:48:03;6.27;;;0.90;;
72575;SDS011;60613;48.658;2.328;2023-10-31T10:50:32;4.63;;;0.73;;
72575;SDS011;60613;48.658;2.328;2023-10-31T10:53:08;3.25;;;0.90;;
72575;SDS011;60613;48.658;2.328;2023-10-31T10:55:38;4.47;;;0.93;;
72575;SDS011;60613;48.658;2.328;2023-10-31T10:58:12;3.67;;;0.80;;
72575;SDS011;60613;48.658;2.328;2023-10-31T11:00:48;4.00;;;0.90;;
72575;SDS011;60613;48.658;2.328;2023-10-31T11:03:15;4.32;;;0.75;;
72575;SDS011;60613;48.658;2.328;2023-10-31T11:05:44;3.03;;;0.80;;
72575;SDS011;60613;48.658;2.328;2023-10-31T11:08:10;4.60;;;0.70;;
72575;SDS011;60613;48.658;2.328;2023-10-31T11:10:36;3.15;;;0.80;;
72575;SDS011;60613;48.658;2.328;2023-10-31T11:13:03;2.20;;;0.63;;
72575;SDS011;60613;48.658;2.328;2023-10-31T11:15:29;4.03;;;0.75;;
72575;SDS011;60613;48.658;2.328;2023-10-31T11:17:55;3.53;;;0.70;;
72575;SDS011;60613;48.658;2.328;2023-10-31T11:20:22;2.90;;;0.75;;
72575;SDS011;60613;48.658;2.328;2023-10-31T11:22:53;4.17;;;0.80;;
72575;SDS011;60613;48.658;2.328;2023-10-31T11:25:22;5.65;;;1.00;;
72575;SDS011;60613;48.658;2.328;2023-10-31T11:27:51;4.97;;;1.10;;
72575;SDS011;60613;48.658;2.328;2023-10-31T11:32:52;4.45;;;1.00;;
72575;SDS011;60613;48.658;2.328;2023-10-31T11:35:17;4.20;;;1.00;;
72575;SDS011;60613;48.658;2.328;2023-10-31T11:37:44;4.00;;;1.40;;
72575;SDS011;60613;48.658;2.328;2023-10-31T11:42:43;5.88;;;1.70;;
72575;SDS011;60613;48.658;2.328;2023-10-31T11:45:12;5.85;;;2.00;;
72575;SDS011;60613;48.658;2.328;2023-10-31T11:47:47;6.27;;;2.00;;
72575;SDS011;60613;48.658;2.328;2023-10-31T11:50:13;5.63;;;2.13;;
72575;SDS011;60613;48.658;2.328;2023-10-31T11:52:39;7.28;;;1.83;;
72575;SDS011;60613;48.658;2.328;2023-10-31T11:55:08;7.87;;;1.80;;
72575;SDS011;60613;48.658;2.328;2023-10-31T11:57:35;13.98;;;2.25;;
72575;SDS011;60613;48.658;2.328;2023-10-31T12:00:01;6.65;;;1.83;;
72575;SDS011;60613;48.658;2.328;2023-10-31T12:02:28;6.93;;;1.55;;
72575;SDS011;60613;48.658;2.328;2023-10-31T12:05:09;5.53;;;1.60;;
72575;SDS011;60613;48.658;2.328;2023-10-31T12:10:09;6.38;;;1.60;;
72575;SDS011;60613;48.658;2.328;2023-10-31T12:12:35;5.40;;;1.50;;
72575;SDS011;60613;48.658;2.328;2023-10-31T12:15:07;8.23;;;1.80;;
72575;SDS011;60613;48.658;2.328;2023-10-31T12:17:34;6.88;;;1.70;;
72575;SDS011;60613;48.658;2.328;2023-10-31T12:20:06;7.35;;;1.50;;
72575;SDS011;60613;48.658;2.328;2023-10-31T12:22:33;5.00;;;1.63;;
72575;SDS011;60613;48.658;2.328;2023-10-31T12:25:06;5.68;;;1.75;;
72575;SDS011;60613;48.658;2.328;2023-10-31T12:27:46;7.93;;;2.28;;
72575;SDS011;60613;48.658;2.328;2023-10-31T12:30:15;7.72;;;2.00;;
72575;SDS011;60613;48.658;2.328;2023-10-31T12:32:41;6.05;;;1.70;;
72575;SDS011;60613;48.658;2.328;2023-10-31T12:35:11;7.53;;;2.13;;
72575;SDS011;60613;48.658;2.328;2023-10-31T12:37:48;5.95;;;2.00;;
72575;SDS011;60613;48.658;2.328;2023-10-31T12:40:16;7.55;;;2.10;;
72575;SDS011;60613;48.658;2.328;2023-10-31T12:42:44;8.30;;;2.33;;
72575;SDS011;60613;48.658;2.328;2023-10-31T12:45:14;7.45;;;2.20;;
72575;SDS011;60613;48.658;2.328;2023-10-31T12:47:41;8.33;;;2.37;;
72575;SDS011;60613;48.658;2.328;2023-10-31T12:50:12;6.45;;;2.20;;
72575;SDS011;60613;48.658;2.328;2023-10-31T12:55:18;7.80;;;2.20;;
72575;SDS011;60613;48.658;2.328;2023-10-31T12:57:45;7.25;;;2.50;;
72575;SDS011;60613;48.658;2.328;2023-10-31T13:00:12;7.70;;;2.63;;
72575;SDS011;60613;48.658;2.328;2023-10-31T13:02:49;8.00;;;2.50;;
72575;SDS011;60613;48.658;2.328;2023-10-31T13:05:25;8.70;;;2.50;;
72575;SDS011;60613;48.658;2.328;2023-10-31T13:07:52;8.40;;;2.50;;
72575;SDS011;60613;48.658;2.328;2023-10-31T13:10:20;8.40;;;2.38;;
72575;SDS011;60613;48.658;2.328;2023-10-31T13:12:46;8.27;;;2.58;;
72575;SDS011;60613;48.658;2.328;2023-10-31T13:15:12;8.38;;;2.78;;
72575;SDS011;60613;48.658;2.328;2023-10-31T13:17:39;9.27;;;2.30;;
72575;SDS011;60613;48.658;2.328;2023-10-31T13:20:08;9.40;;;2.40;;
72575;SDS011;60613;48.658;2.328;2023-10-31T13:22:34;9.02;;;2.42;;
72575;SDS011;60613;48.658;2.328;2023-10-31T13:25:04;10.30;;;2.80;;
72575;SDS011;60613;48.658;2.328;2023-10-31T13:27:31;9.88;;;2.60;;
72575;SDS011;60613;48.658;2.328;2023-10-31T13:29:57;8.57;;;2.27;;
72575;SDS011;60613;48.658;2.328;2023-10-31T13:32:23;9.48;;;2.50;;
72575;SDS011;60613;48.658;2.328;2023-10-31T13:34:49;16.57;;;3.10;;
72575;SDS011;60613;48.658;2.328;2023-10-31T13:37:14;11.40;;;2.58;;
72575;SDS011;60613;48.658;2.328;2023-10-31T13:39:40;10.10;;;2.90;;
72575;SDS011;60613;48.658;2.328;2023-10-31T13:42:06;11.13;;;2.83;;
72575;SDS011;60613;48.658;2.328;2023-10-31T13:44:31;12.30;;;2.70;;
72575;SDS011;60613;48.658;2.328;2023-10-31T13:46:57;13.43;;;2.77;;
72575;SDS011;60613;48.658;2.328;2023-10-31T13:49:22;12.80;;;2.45;;
72575;SDS011;60613;48.658;2.328;2023-10-31T13:51:49;13.77;;;3.28;;
72575;SDS011;60613;48.658;2.328;2023-10-31T13:54:14;20.47;;;3.30;;
72575;SDS011;60613;48.658;2.328;2023-10-31T13:56:40;27.00;;;4.10;;
72575;SDS011;60613;48.658;2.328;2023-10-31T13:59:06;29.60;;;3.80;;
72575;SDS011;60613;48.658;2.328;2023-10-31T14:01:31;23.90;;;3.60;;
72575;SDS011;60613;48.658;2.328;2023-10-31T14:03:57;25.60;;;3.47;;
72575;SDS011;60613;48.658;2.328;2023-10-31T14:06:22;20.37;;;3.37;;
72575;SDS011;60613;48.658;2.328;2023-10-31T14:08:50;188.27;;;18.33;;
72575;SDS011;60613;48.658;2.328;2023-10-31T14:11:16;184.25;;;17.58;;
72575;SDS011;60613;48.658;2.328;2023-10-31T14:13:42;212.13;;;17.03;;
72575;SDS011;60613;48.658;2.328;2023-10-31T14:16:09;194.45;;;17.20;;
72575;SDS011;60613;48.658;2.328;2023-10-31T14:18:37;162.30;;;14.93;;
72575;SDS011;60613;48.658;2.328;2023-10-31T14:21:02;119.30;;;13.27;;
72575;SDS011;60613;48.658;2.328;2023-10-31T14:23:28;146.13;;;13.23;;
72575;SDS011;60613;48.658;2.328;2023-10-31T14:25:54;127.93;;;11.00;;
72575;SDS011;60613;48.658;2.328;2023-10-31T14:28:19;121.07;;;11.90;;
72575;SDS011;60613;48.658;2.328;2023-10-31T14:30:45;104.10;;;11.50;;
72575;SDS011;60613;48.658;2.328;2023-10-31T14:33:10;98.20;;;10.20;;
72575;SDS011;60613;48.658;2.328;2023-10-31T14:35:36;98.03;;;11.10;;
72575;SDS011;60613;48.658;2.328;2023-10-31T14:38:02;96.30;;;9.43;;
72575;SDS011;60613;48.658;2.328;2023-10-31T14:40:27;103.00;;;10.13;;
72575;SDS011;60613;48.658;2.328;2023-10-31T14:42:53;97.43;;;9.27;;
72575;SDS011;60613;48.658;2.328;2023-10-31T14:45:18;63.92;;;8.45;;
72575;SDS011;60613;48.658;2.328;2023-10-31T14:47:44;77.77;;;8.73;;
72575;SDS011;60613;48.658;2.328;2023-10-31T14:50:10;77.72;;;7.93;;
72575;SDS011;60613;48.658;2.328;2023-10-31T14:52:35;65.07;;;7.13;;
72575;SDS011;60613;48.658;2.328;2023-10-31T14:55:01;60.30;;;8.07;;
72575;SDS011;60613;48.658;2.328;2023-10-31T14:57:26;59.50;;;6.05;;
72575;SDS011;60613;48.658;2.328;2023-10-31T14:59:52;46.83;;;6.07;;
72575;SDS011;60613;48.658;2.328;2023-10-31T15:02:17;49.63;;;5.83;;
72575;SDS011;60613;48.658;2.328;2023-10-31T15:04:43;42.67;;;5.33;;
72575;SDS011;60613;48.658;2.328;2023-10-31T15:07:08;41.60;;;4.40;;
72575;SDS011;60613;48.658;2.328;2023-10-31T15:09:34;41.20;;;5.25;;
72575;SDS011;60613;48.658;2.328;2023-10-31T15:11:59;26.43;;;4.00;;
72575;SDS011;60613;48.658;2.328;2023-10-31T15:14:25;27.60;;;3.73;;
72575;SDS011;60613;48.658;2.328;2023-10-31T15:16:51;31.67;;;4.47;;
72575;SDS011;60613;48.658;2.328;2023-10-31T15:19:16;24.57;;;3.87;;
72575;SDS011;60613;48.658;2.328;2023-10-31T15:21:42;32.28;;;4.28;;
72575;SDS011;60613;48.658;2.328;2023-10-31T15:24:07;24.30;;;3.23;;
72575;SDS011;60613;48.658;2.328;2023-10-31T15:26:35;27.20;;;3.83;;
72575;SDS011;60613;48.658;2.328;2023-10-31T15:29:03;22.40;;;3.47;;
72575;SDS011;60613;48.658;2.328;2023-10-31T15:31:29;19.20;;;3.13;;
72575;SDS011;60613;48.658;2.328;2023-10-31T15:33:55;21.30;;;3.00;;
72575;SDS011;60613;48.658;2.328;2023-10-31T15:36:21;20.27;;;3.10;;
72575;SDS011;60613;48.658;2.328;2023-10-31T15:38:46;17.50;;;2.87;;
72575;SDS011;60613;48.658;2.328;2023-10-31T15:41:12;13.13;;;2.60;;
72575;SDS011;60613;48.658;2.328;2023-10-31T15:43:38;14.20;;;2.55;;
72575;SDS011;60613;48.658;2.328;2023-10-31T15:46:04;16.10;;;2.92;;
72575;SDS011;60613;48.658;2.328;2023-10-31T15:48:30;18.37;;;2.70;;
72575;SDS011;60613;48.658;2.328;2023-10-31T15:50:55;17.80;;;3.20;;
72575;SDS011;60613;48.658;2.328;2023-10-31T15:53:21;13.40;;;2.40;;
72575;SDS011;60613;48.658;2.328;2023-10-31T15:55:48;15.23;;;2.30;;
72575;SDS011;60613;48.658;2.328;2023-10-31T15:58:14;15.93;;;2.53;;
72575;SDS011;60613;48.658;2.328;2023-10-31T16:00:40;15.87;;;2.73;;
72575;SDS011;60613;48.658;2.328;2023-10-31T16:03:05;14.87;;;2.50;;
72575;SDS011;60613;48.658;2.328;2023-10-31T16:05:31;14.13;;;2.80;;
72575;SDS011;60613;48.658;2.328;2023-10-31T16:07:58;13.65;;;2.47;;
72575;SDS011;60613;48.658;2.328;2023-10-31T16:10:24;13.73;;;2.30;;
72575;SDS011;60613;48.658;2.328;2023-10-31T16:12:49;15.93;;;2.30;;
72575;SDS011;60613;48.658;2.328;2023-10-31T16:15:15;14.83;;;2.20;;
72575;SDS011;60613;48.658;2.328;2023-10-31T16:17:41;11.40;;;2.00;;
72575;SDS011;60613;48.658;2.328;2023-10-31T16:20:07;9.85;;;2.08;;
72575;SDS011;60613;48.658;2.328;2023-10-31T16:22:33;7.97;;;1.90;;
72575;SDS011;60613;48.658;2.328;2023-10-31T16:24:58;12.02;;;2.10;;
72575;SDS011;60613;48.658;2.328;2023-10-31T16:27:24;12.00;;;1.97;;
72575;SDS011;60613;48.658;2.328;2023-10-31T16:29:49;9.10;;;1.80;;
72575;SDS011;60613;48.658;2.328;2023-10-31T16:32:15;10.38;;;1.95;;
72575;SDS011;60613;48.658;2.328;2023-10-31T16:34:40;9.37;;;1.70;;
72575;SDS011;60613;48.658;2.328;2023-10-31T16:37:11;10.20;;;1.90;;
72575;SDS011;60613;48.658;2.328;2023-10-31T16:39:37;9.23;;;2.00;;
72575;SDS011;60613;48.658;2.328;2023-10-31T16:42:03;8.38;;;2.00;;
72575;SDS011;60613;48.658;2.328;2023-10-31T16:44:28;7.47;;;1.58;;
72575;SDS011;60613;48.658;2.328;2023-10-31T16:46:54;13.73;;;1.80;;
72575;SDS011;60613;48.658;2.328;2023-10-31T16:49:22;8.30;;;1.70;;
72575;SDS011;60613;48.658;2.328;2023-10-31T16:51:47;7.20;;;1.77;;
72575;SDS011;60613;48.658;2.328;2023-10-31T16:54:14;8.68;;;1.70;;
72575;SDS011;60613;48.658;2.328;2023-10-31T16:56:40;6.43;;;1.47;;
72575;SDS011;60613;48.658;2.328;2023-10-31T16:59:05;10.10;;;1.65;;
72575;SDS011;60613;48.658;2.328;2023-10-31T17:01:31;7.87;;;1.63;;
72575;SDS011;60613;48.658;2.328;2023-10-31T17:03:57;8.00;;;1.60;;
72575;SDS011;60613;48.658;2.328;2023-10-31T17:06:22;7.03;;;1.50;;
72575;SDS011;60613;48.658;2.328;2023-10-31T17:08:48;7.32;;;1.60;;
72575;SDS011;60613;48.658;2.328;2023-10-31T17:11:14;8.07;;;1.50;;
72575;SDS011;60613;48.658;2.328;2023-10-31T17:13:39;7.85;;;1.63;;
72575;SDS011;60613;48.658;2.328;2023-10-31T17:16:05;4.93;;;1.40;;
72575;SDS011;60613;48.658;2.328;2023-10-31T17:18:32;6.35;;;1.40;;
72575;SDS011;60613;48.658;2.328;2023-10-31T17:20:58;7.73;;;1.67;;
72575;SDS011;60613;48.658;2.328;2023-10-31T17:23:24;9.10;;;1.63;;
72575;SDS011;60613;48.658;2.328;2023-10-31T17:25:50;9.07;;;1.70;;
72575;SDS011;60613;48.658;2.328;2023-10-31T17:28:17;7.85;;;1.60;;
72575;SDS011;60613;48.658;2.328;2023-10-31T17:30:43;5.90;;;1.42;;
72575;SDS011;60613;48.658;2.328;2023-10-31T17:33:10;7.00;;;1.48;;
72575;SDS011;60613;48.658;2.328;2023-10-31T17:35:37;6.73;;;1.53;;
72575;SDS011;60613;48.658;2.328;2023-10-31T17:38:02;7.05;;;1.83;;
72575;SDS011;60613;48.658;2.328;2023-10-31T17:40:29;5.68;;;1.65;;
72575;SDS011;60613;48.658;2.328;2023-10-31T17:42:55;5.28;;;1.40;;
72575;SDS011;60613;48.658;2.328;2023-10-31T17:45:21;7.20;;;1.60;;
72575;SDS011;60613;48.658;2.328;2023-10-31T17:47:49;6.43;;;1.70;;
72575;SDS011;60613;48.658;2.328;2023-10-31T17:50:15;7.97;;;1.77;;
72575;SDS011;60613;48.658;2.328;2023-10-31T17:52:41;13.63;;;1.90;;
72575;SDS011;60613;48.658;2.328;2023-10-31T17:55:06;7.50;;;1.67;;
72575;SDS011;60613;48.658;2.328;2023-10-31T17:57:32;7.05;;;1.60;;
72575;SDS011;60613;48.658;2.328;2023-10-31T18:00:00;6.85;;;1.52;;
72575;SDS011;60613;48.658;2.328;2023-10-31T18:02:27;5.87;;;1.90;;
72575;SDS011;60613;48.658;2.328;2023-10-31T18:04:52;8.63;;;2.20;;
72575;SDS011;60613;48.658;2.328;2023-10-31T18:07:18;6.20;;;1.90;;
72575;SDS011;60613;48.658;2.328;2023-10-31T18:09:44;6.83;;;1.93;;
72575;SDS011;60613;48.658;2.328;2023-10-31T18:12:10;5.33;;;1.60;;
72575;SDS011;60613;48.658;2.328;2023-10-31T18:14:37;6.25;;;1.90;;
72575;SDS011;60613;48.658;2.328;2023-10-31T18:17:03;6.30;;;1.60;;
72575;SDS011;60613;48.658;2.328;2023-10-31T18:19:29;7.23;;;1.80;;
72575;SDS011;60613;48.658;2.328;2023-10-31T18:21:54;5.65;;;1.70;;
72575;SDS011;60613;48.658;2.328;2023-10-31T18:24:21;6.82;;;1.80;;
72575;SDS011;60613;48.658;2.328;2023-10-31T18:26:47;7.20;;;1.93;;
72575;SDS011;60613;48.658;2.328;2023-10-31T18:29:13;8.13;;;2.03;;
72575;SDS011;60613;48.658;2.328;2023-10-31T18:31:38;8.05;;;1.92;;
72575;SDS011;60613;48.658;2.328;2023-10-31T18:34:04;6.33;;;2.07;;
72575;SDS011;60613;48.658;2.328;2023-10-31T18:36:30;5.67;;;1.87;;
72575;SDS011;60613;48.658;2.328;2023-10-31T18:38:56;7.78;;;2.20;;
72575;SDS011;60613;48.658;2.328;2023-10-31T18:41:23;7.90;;;2.30;;
72575;SDS011;60613;48.658;2.328;2023-10-31T18:43:48;7.07;;;2.10;;
72575;SDS011;60613;48.658;2.328;2023-10-31T18:46:14;8.02;;;2.00;;
72575;SDS011;60613;48.658;2.328;2023-10-31T18:48:39;6.93;;;2.00;;
72575;SDS011;60613;48.658;2.328;2023-10-31T18:51:05;6.30;;;2.00;;
72575;SDS011;60613;48.658;2.328;2023-10-31T18:53:31;6.97;;;2.30;;
72575;SDS011;60613;48.658;2.328;2023-10-31T18:55:57;5.43;;;1.83;;
72575;SDS011;60613;48.658;2.328;2023-10-31T18:58:22;6.07;;;1.87;;
72575;SDS011;60613;48.658;2.328;2023-10-31T19:00:48;7.75;;;2.00;;
72575;SDS011;60613;48.658;2.328;2023-10-31T19:03:13;5.23;;;1.80;;
72575;SDS011;60613;48.658;2.328;2023-10-31T19:05:40;6.22;;;2.00;;
72575;SDS011;60613;48.658;2.328;2023-10-31T19:08:05;5.70;;;1.90;;
72575;SDS011;60613;48.658;2.328;2023-10-31T19:10:31;6.72;;;1.90;;
72575;SDS011;60613;48.658;2.328;2023-10-31T19:12:57;5.97;;;1.93;;
72575;SDS011;60613;48.658;2.328;2023-10-31T19:15:22;6.53;;;1.73;;
72575;SDS011;60613;48.658;2.328;2023-10-31T19:17:48;8.10;;;1.80;;
72575;SDS011;60613;48.658;2.328;2023-10-31T19:20:13;7.43;;;2.03;;
72575;SDS011;60613;48.658;2.328;2023-10-31T19:22:39;5.65;;;1.65;;
72575;SDS011;60613;48.658;2.328;2023-10-31T19:25:05;5.63;;;1.73;;
72575;SDS011;60613;48.658;2.328;2023-10-31T19:27:30;6.38;;;2.00;;
72575;SDS011;60613;48.658;2.328;2023-10-31T19:29:56;6.67;;;2.03;;
72575;SDS011;60613;48.658;2.328;2023-10-31T19:32:25;5.25;;;1.70;;
72575;SDS011;60613;48.658;2.328;2023-10-31T19:34:51;6.20;;;1.98;;
72575;SDS011;60613;48.658;2.328;2023-10-31T19:37:17;7.05;;;1.90;;
72575;SDS011;60613;48.658;2.328;2023-10-31T19:39:43;7.37;;;2.10;;
72575;SDS011;60613;48.658;2.328;2023-10-31T19:42:09;6.25;;;1.90;;
72575;SDS011;60613;48.658;2.328;2023-10-31T19:44:34;5.33;;;1.70;;
72575;SDS011;60613;48.658;2.328;2023-10-31T19:47:00;7.93;;;2.00;;
72575;SDS011;60613;48.658;2.328;2023-10-31T19:49:26;6.20;;;1.70;;
72575;SDS011;60613;48.658;2.328;2023-10-31T19:51:51;6.17;;;1.97;;
72575;SDS011;60613;48.658;2.328;2023-10-31T19:54:17;7.30;;;2.03;;
72575;SDS011;60613;48.658;2.328;2023-10-31T19:56:42;6.43;;;1.90;;
72575;SDS011;60613;48.658;2.328;2023-10-31T19:59:08;7.03;;;1.90;;
